Chicago, Illinois
Traffic Map
Current Weather Conditions
Chicago, Illinois
Overcast
Overcast
22°
Feels Like: 22°
Wind Chill: 22° Ceiling: 12000
Heat Index: 22° Visibility: 10mi
Dew Point: 14° Wind: 12mph
Humidity: 59% Direction: 180° (S)
Pressure: 30.01in Gusts: 0mph
Raw Report DataKMDW 251551Z 18010KT 10SM SCT090 OVC120 22/14 A3001 RMK AO2 SLP156 T02220139
Traffic Incident Summary
Active as of:
Severity:
Category:
InformationThere was an issue retrieving the traffic information for this location. Please try a different location or try again shortly.
Advertisements
Track Severe Weather on mobile